Time;durP1;ratioP1;P1;durP2;ratioP2;P2;SDS_P1;SDS_P2;PMS_P1;PMS_P2;Temp;Humidity;BMP_temperature;BMP_pressure;BME280_temperature;BME280_humidity;BME280_pressure;Samples;Min_cycle;Max_cycle;Signal;HPM_P1;HPM_P2
2022/06/08 00:01:51;;;;;;;;;;;21.80;56.10;;;;;;475460;251;1200;-42
2022/06/08 00:03:52;;;;;;;;;;;21.90;56.20;;;;;;475550;250;1050;-41
2022/06/08 00:05:54;;;;;;;;;;;21.80;56.10;;;;;;475493;251;2196;-42
2022/06/08 00:07:55;;;;;;;;;;;21.80;56.10;;;;;;475579;250;1187;-42
2022/06/08 00:09:56;;;;;;;;;;;21.80;56.20;;;;;;475879;250;1193;-42
2022/06/08 00:11:58;;;;;;;;;;;21.80;56.30;;;;;;475433;251;1217;-42
2022/06/08 00:13:59;;;;;;;;;;;21.80;56.20;;;;;;475824;250;1035;-42
2022/06/08 00:16:01;;;;;;;;;;;21.80;56.20;;;;;;475462;250;1055;-41
2022/06/08 00:18:02;;;;;;;;;;;21.80;56.30;;;;;;475390;251;1741;-42
2022/06/08 00:20:03;;;;;;;;;;;21.80;56.30;;;;;;475727;250;1243;-41
2022/06/08 00:22:05;;;;;;;;;;;21.80;56.30;;;;;;475355;250;1291;-42
2022/06/08 00:24:06;;;;;;;;;;;21.80;56.30;;;;;;475418;251;1200;-42
2022/06/08 00:26:07;;;;;;;;;;;21.80;56.40;;;;;;475495;250;2208;-42
2022/06/08 00:28:09;;;;;;;;;;;21.80;56.30;;;;;;475474;250;1195;-42
2022/06/08 00:30:10;;;;;;;;;;;21.80;56.30;;;;;;475537;250;1291;-42
2022/06/08 00:32:11;;;;;;;;;;;21.80;56.30;;;;;;475360;251;1166;-42
2022/06/08 00:34:12;;;;;;;;;;;21.80;56.30;;;;;;475671;250;1297;-41
2022/06/08 00:36:14;;;;;;;;;;;21.80;56.30;;;;;;475388;251;1228;-42
2022/06/08 00:38:15;;;;;;;;;;;21.80;56.30;;;;;;475750;250;1620;-41
2022/06/08 00:40:16;;;;;;;;;;;21.80;56.30;;;;;;475474;251;1528;-42
2022/06/08 00:42:18;;;;;;;;;;;21.80;56.30;;;;;;475417;251;1287;-42
2022/06/08 00:44:19;;;;;;;;;;;21.80;56.30;;;;;;475450;251;1104;-42
2022/06/08 00:46:21;;;;;;;;;;;21.80;56.30;;;;;;475847;250;2138;-41
2022/06/08 00:48:22;;;;;;;;;;;21.80;56.20;;;;;;475824;250;1082;-41
2022/06/08 00:50:23;;;;;;;;;;;21.80;56.10;;;;;;475603;250;1278;-41
2022/06/08 00:52:24;;;;;;;;;;;21.80;56.20;;;;;;475848;250;1041;-42
2022/06/08 00:54:26;;;;;;;;;;;21.80;56.10;;;;;;475793;250;1056;-42
2022/06/08 00:56:27;;;;;;;;;;;21.80;56.20;;;;;;475397;250;1155;-42
2022/06/08 00:58:29;;;;;;;;;;;21.80;56.20;;;;;;475899;250;1047;-42
2022/06/08 01:00:30;;;;;;;;;;;21.80;56.10;;;;;;475541;250;1084;-42
2022/06/08 01:02:32;;;;;;;;;;;21.80;56.20;;;;;;475459;251;1228;-42
2022/06/08 01:04:34;;;;;;;;;;;21.80;56.30;;;;;;475503;251;1986;-42
2022/06/08 01:06:34;;;;;;;;;;;21.80;56.30;;;;;;475417;251;2445;-42
2022/06/08 01:08:36;;;;;;;;;;;21.80;56.30;;;;;;475768;250;1222;-41
2022/06/08 01:10:37;;;;;;;;;;;21.80;56.30;;;;;;475834;250;1236;-42
2022/06/08 01:12:38;;;;;;;;;;;21.70;56.30;;;;;;475844;250;1240;-42
2022/06/08 01:14:39;;;;;;;;;;;21.80;56.30;;;;;;475393;251;1127;-42
2022/06/08 01:16:41;;;;;;;;;;;21.80;56.30;;;;;;475517;250;1368;-41
2022/06/08 01:18:42;;;;;;;;;;;21.80;56.30;;;;;;475503;251;1097;-42
2022/06/08 01:20:43;;;;;;;;;;;21.80;56.20;;;;;;475446;251;1163;-42
2022/06/08 01:22:45;;;;;;;;;;;21.80;56.30;;;;;;475412;251;1214;-41
2022/06/08 01:24:46;;;;;;;;;;;21.80;56.30;;;;;;475845;250;1222;-42
2022/06/08 01:26:47;;;;;;;;;;;21.80;56.30;;;;;;475415;250;2168;-42
2022/06/08 01:28:49;;;;;;;;;;;21.80;56.10;;;;;;475464;251;1211;-41
2022/06/08 01:30:51;;;;;;;;;;;21.90;56.00;;;;;;475470;250;1392;-42
2022/06/08 01:32:52;;;;;;;;;;;21.80;56.10;;;;;;475841;250;1223;-42
2022/06/08 01:34:53;;;;;;;;;;;21.80;56.10;;;;;;475443;251;1544;-42
2022/06/08 01:36:55;;;;;;;;;;;21.90;56.10;;;;;;475475;250;1287;-41
2022/06/08 01:38:56;;;;;;;;;;;21.80;56.10;;;;;;475836;250;1233;-41
2022/06/08 01:40:57;;;;;;;;;;;21.80;56.10;;;;;;475554;250;1285;-42
2022/06/08 01:42:59;;;;;;;;;;;21.80;56.10;;;;;;475427;251;1074;-42
2022/06/08 01:47:19;;;;;;;;;;;21.80;56.20;;;;;;475527;250;2124;-42
2022/06/08 01:49:21;;;;;;;;;;;21.80;56.10;;;;;;475890;250;1291;-42
2022/06/08 01:51:22;;;;;;;;;;;21.80;56.00;;;;;;475619;250;1232;-42
2022/06/08 01:53:24;;;;;;;;;;;21.80;56.20;;;;;;475543;250;1230;-42
2022/06/08 01:55:25;;;;;;;;;;;21.80;56.10;;;;;;475694;250;1307;-42
2022/06/08 01:57:26;;;;;;;;;;;21.80;56.20;;;;;;475501;250;1234;-41
2022/06/08 01:59:27;;;;;;;;;;;21.80;56.20;;;;;;475783;250;1279;-42
2022/06/08 02:01:29;;;;;;;;;;;21.80;56.30;;;;;;475409;251;1170;-42
2022/06/08 02:03:30;;;;;;;;;;;21.80;56.20;;;;;;475555;250;1204;-41
2022/06/08 02:05:32;;;;;;;;;;;21.80;56.20;;;;;;475412;251;1506;-42
2022/06/08 02:07:33;;;;;;;;;;;21.80;56.10;;;;;;475331;251;2138;-42
2022/06/08 02:09:34;;;;;;;;;;;21.80;56.10;;;;;;475437;250;1232;-41
2022/06/08 02:11:35;;;;;;;;;;;21.80;56.10;;;;;;475415;251;1269;-41
2022/06/08 02:13:37;;;;;;;;;;;21.80;56.00;;;;;;475665;250;1372;-42
2022/06/08 02:15:38;;;;;;;;;;;21.80;56.20;;;;;;475443;251;1222;-42
2022/06/08 02:17:39;;;;;;;;;;;21.80;56.20;;;;;;475454;251;1178;-42
2022/06/08 02:19:41;;;;;;;;;;;21.80;56.20;;;;;;475531;250;1328;-42
2022/06/08 02:21:42;;;;;;;;;;;21.80;56.20;;;;;;475646;250;1247;-42
2022/06/08 02:23:43;;;;;;;;;;;21.80;56.10;;;;;;475864;250;1126;-42
2022/06/08 02:25:45;;;;;;;;;;;21.80;56.10;;;;;;475400;251;1241;-42
2022/06/08 02:27:46;;;;;;;;;;;21.80;56.20;;;;;;475621;250;2132;-42
2022/06/08 02:29:47;;;;;;;;;;;21.80;56.30;;;;;;475412;251;1340;-41
2022/06/08 02:31:49;;;;;;;;;;;21.80;56.30;;;;;;475362;251;1238;-42
2022/06/08 02:36:09;;;;;;;;;;;21.80;56.20;;;;;;475524;250;1219;-42
2022/06/08 02:38:11;;;;;;;;;;;21.80;56.10;;;;;;475417;250;1215;-42
2022/06/08 02:40:12;;;;;;;;;;;21.80;56.20;;;;;;475453;251;1079;-42
2022/06/08 02:42:13;;;;;;;;;;;21.80;56.30;;;;;;475401;251;1101;-42
2022/06/08 02:44:15;;;;;;;;;;;21.80;56.20;;;;;;475448;251;1269;-41
2022/06/08 02:46:16;;;;;;;;;;;21.80;56.30;;;;;;475467;250;2134;-42
2022/06/08 02:48:17;;;;;;;;;;;21.80;56.20;;;;;;475717;250;1058;-42
2022/06/08 02:50:19;;;;;;;;;;;21.80;56.20;;;;;;475627;250;1089;-42
2022/06/08 02:52:20;;;;;;;;;;;21.80;56.20;;;;;;475433;251;1181;-42
2022/06/08 02:54:21;;;;;;;;;;;21.80;56.20;;;;;;475473;251;1276;-42
2022/06/08 02:56:23;;;;;;;;;;;21.70;56.20;;;;;;475396;250;1213;-42
2022/06/08 02:58:24;;;;;;;;;;;21.80;56.40;;;;;;475530;250;1347;-42
2022/06/08 03:00:26;;;;;;;;;;;21.70;56.40;;;;;;475420;251;1078;-42
2022/06/08 03:02:27;;;;;;;;;;;21.70;56.50;;;;;;475384;251;2196;-42
2022/06/08 03:04:28;;;;;;;;;;;21.80;56.30;;;;;;475848;250;1235;-42
2022/06/08 03:06:29;;;;;;;;;;;21.80;56.30;;;;;;475696;250;2196;-42
2022/06/08 03:08:31;;;;;;;;;;;21.80;56.20;;;;;;475500;250;1183;-41
2022/06/08 03:10:32;;;;;;;;;;;21.80;56.20;;;;;;475697;250;1089;-41
2022/06/08 03:12:33;;;;;;;;;;;21.80;56.30;;;;;;475480;250;1209;-42
2022/06/08 03:14:35;;;;;;;;;;;21.80;56.30;;;;;;475503;251;1123;-42
2022/06/08 03:16:36;;;;;;;;;;;21.80;56.20;;;;;;475336;251;1355;-41
2022/06/08 03:18:37;;;;;;;;;;;21.80;56.30;;;;;;475684;250;1232;-42
2022/06/08 03:20:39;;;;;;;;;;;21.80;56.20;;;;;;475586;250;1044;-42
2022/06/08 03:22:40;;;;;;;;;;;21.80;56.30;;;;;;475623;250;1629;-42
2022/06/08 03:24:42;;;;;;;;;;;21.80;56.30;;;;;;475625;250;1078;-42
2022/06/08 03:26:43;;;;;;;;;;;21.80;56.10;;;;;;475632;250;2193;-42
2022/06/08 03:28:44;;;;;;;;;;;21.80;56.10;;;;;;475404;251;1155;-42
2022/06/08 03:30:46;;;;;;;;;;;21.80;56.30;;;;;;475468;251;1124;-42
2022/06/08 03:32:47;;;;;;;;;;;21.80;56.30;;;;;;475363;251;1197;-42
2022/06/08 03:34:48;;;;;;;;;;;21.80;56.20;;;;;;475625;250;1096;-42
2022/06/08 03:36:50;;;;;;;;;;;21.80;56.30;;;;;;475344;251;1532;-41
2022/06/08 03:38:51;;;;;;;;;;;21.80;56.30;;;;;;475549;250;1231;-42
2022/06/08 03:40:53;;;;;;;;;;;21.80;56.30;;;;;;475610;250;1260;-42
2022/06/08 03:42:54;;;;;;;;;;;21.70;56.30;;;;;;475594;250;1224;-41
2022/06/08 03:44:55;;;;;;;;;;;21.70;56.30;;;;;;475887;250;1165;-42
2022/06/08 03:46:57;;;;;;;;;;;21.80;56.30;;;;;;475588;250;2141;-42
2022/06/08 03:48:58;;;;;;;;;;;21.70;56.40;;;;;;475465;251;1263;-42
2022/06/08 03:50:59;;;;;;;;;;;21.70;56.30;;;;;;475787;250;1193;-42
2022/06/08 03:53:01;;;;;;;;;;;21.80;56.30;;;;;;475435;250;1222;-42
2022/06/08 03:55:02;;;;;;;;;;;21.80;56.30;;;;;;475731;250;1191;-42
2022/06/08 03:57:04;;;;;;;;;;;21.80;56.20;;;;;;475791;250;1215;-42
2022/06/08 03:59:05;;;;;;;;;;;21.80;56.10;;;;;;475593;250;1197;-42
2022/06/08 04:01:06;;;;;;;;;;;21.80;56.30;;;;;;475704;250;1239;-41
2022/06/08 04:03:09;;;;;;;;;;;21.70;56.40;;;;;;475460;250;1046;-42
2022/06/08 04:05:09;;;;;;;;;;;21.80;56.40;;;;;;475692;250;1621;-42
2022/06/08 04:07:11;;;;;;;;;;;21.80;56.30;;;;;;475729;250;2120;-42
2022/06/08 04:09:12;;;;;;;;;;;21.80;56.30;;;;;;475459;250;1204;-42
2022/06/08 04:11:13;;;;;;;;;;;21.80;56.30;;;;;;475409;250;1226;-42
2022/06/08 04:13:15;;;;;;;;;;;21.80;56.30;;;;;;475665;250;1188;-42
2022/06/08 04:15:41;;;;;;;;;;;21.80;56.30;;;;;;475412;251;1174;-42
2022/06/08 04:17:33;;;;;;;;;;;21.80;56.30;;;;;;474672;251;2184;-42
2022/06/08 04:19:35;;;;;;;;;;;21.80;56.20;;;;;;475373;250;1097;-42
2022/06/08 04:21:36;;;;;;;;;;;21.80;56.30;;;;;;475652;250;1188;-42
2022/06/08 04:23:37;;;;;;;;;;;21.80;56.30;;;;;;475325;251;1374;-42
2022/06/08 04:25:39;;;;;;;;;;;21.80;56.30;;;;;;475262;250;1230;-42
2022/06/08 04:27:40;;;;;;;;;;;21.80;56.30;;;;;;475459;250;2196;-42
2022/06/08 04:29:41;;;;;;;;;;;21.80;56.30;;;;;;475327;250;1109;-42
2022/06/08 04:31:43;;;;;;;;;;;21.70;56.40;;;;;;475485;250;1298;-42
2022/06/08 04:33:44;;;;;;;;;;;21.80;56.30;;;;;;475417;250;1135;-42
2022/06/08 04:35:45;;;;;;;;;;;21.80;56.30;;;;;;475433;250;1555;-42
2022/06/08 04:37:47;;;;;;;;;;;21.80;56.30;;;;;;475428;250;1218;-42
2022/06/08 04:39:48;;;;;;;;;;;21.80;56.30;;;;;;475247;251;1287;-42
2022/06/08 04:41:49;;;;;;;;;;;21.80;56.30;;;;;;475388;250;1326;-42
2022/06/08 04:43:51;;;;;;;;;;;21.80;56.30;;;;;;475295;251;1290;-42
2022/06/08 04:45:52;;;;;;;;;;;21.80;56.30;;;;;;475616;250;1170;-41
2022/06/08 04:47:53;;;;;;;;;;;21.80;56.20;;;;;;475302;250;2200;-42
2022/06/08 04:49:55;;;;;;;;;;;21.80;56.30;;;;;;475366;250;1286;-42
2022/06/08 04:51:56;;;;;;;;;;;21.80;56.20;;;;;;475285;250;1421;-42
2022/06/08 04:53:57;;;;;;;;;;;21.80;56.30;;;;;;475262;250;1328;-42
2022/06/08 04:55:59;;;;;;;;;;;21.80;56.10;;;;;;475227;251;1262;-42
2022/06/08 04:58:01;;;;;;;;;;;21.80;56.10;;;;;;475216;250;1193;-42
2022/06/08 05:00:03;;;;;;;;;;;21.80;56.20;;;;;;475127;251;1255;-42
2022/06/08 05:02:04;;;;;;;;;;;21.80;56.20;;;;;;475192;251;1389;-42
2022/06/08 05:04:05;;;;;;;;;;;21.80;56.30;;;;;;475440;250;1113;-42
2022/06/08 05:06:07;;;;;;;;;;;21.70;56.30;;;;;;475334;250;1286;-42
2022/06/08 05:08:08;;;;;;;;;;;21.80;56.30;;;;;;475113;251;2137;-42
2022/06/08 05:10:09;;;;;;;;;;;21.80;56.30;;;;;;475197;250;1229;-42
2022/06/08 05:12:11;;;;;;;;;;;21.80;56.30;;;;;;475080;251;1314;-42
2022/06/08 05:14:13;;;;;;;;;;;21.80;56.30;;;;;;475373;250;1189;-42
2022/06/08 05:16:13;;;;;;;;;;;21.80;56.20;;;;;;475070;250;2488;-42
2022/06/08 05:18:15;;;;;;;;;;;21.80;56.20;;;;;;475084;250;1225;-42
2022/06/08 05:20:17;;;;;;;;;;;21.80;56.10;;;;;;475040;251;1259;-41
2022/06/08 05:22:18;;;;;;;;;;;21.80;56.10;;;;;;475016;250;1223;-42
2022/06/08 05:24:19;;;;;;;;;;;21.80;56.10;;;;;;475015;251;1334;-42
2022/06/08 05:26:20;;;;;;;;;;;21.80;56.30;;;;;;475032;250;1331;-42
2022/06/08 05:28:22;;;;;;;;;;;21.80;56.30;;;;;;475064;251;2196;-42
2022/06/08 05:30:25;;;;;;;;;;;21.80;56.20;;;;;;475180;250;1105;-42
2022/06/08 05:32:24;;;;;;;;;;;21.80;56.20;;;;;;474994;250;2207;-42
2022/06/08 05:34:26;;;;;;;;;;;21.80;56.30;;;;;;475389;250;1111;-42
2022/06/08 05:36:27;;;;;;;;;;;21.80;56.30;;;;;;475276;250;1326;-42
2022/06/08 05:38:29;;;;;;;;;;;21.80;56.20;;;;;;475157;250;1184;-42
2022/06/08 05:40:32;;;;;;;;;;;21.80;56.30;;;;;;475063;251;1177;-42
2022/06/08 05:42:32;;;;;;;;;;;21.80;56.30;;;;;;474936;250;2186;-42
2022/06/08 05:44:33;;;;;;;;;;;21.80;56.10;;;;;;475065;250;1170;-42
2022/06/08 05:46:34;;;;;;;;;;;21.80;56.30;;;;;;475073;250;1284;-42
2022/06/08 05:48:36;;;;;;;;;;;21.80;56.30;;;;;;475152;250;2113;-42
2022/06/08 05:50:37;;;;;;;;;;;21.80;56.20;;;;;;474991;250;1259;-42
2022/06/08 05:52:38;;;;;;;;;;;21.80;56.30;;;;;;475043;250;1251;-42
2022/06/08 05:54:40;;;;;;;;;;;21.80;56.20;;;;;;475055;250;1441;-42
2022/06/08 05:56:41;;;;;;;;;;;21.80;56.20;;;;;;474853;251;1262;-42
2022/06/08 05:58:43;;;;;;;;;;;21.80;56.30;;;;;;475052;250;1229;-41
2022/06/08 06:00:44;;;;;;;;;;;21.80;56.20;;;;;;475015;250;1202;-42
2022/06/08 06:02:45;;;;;;;;;;;21.80;56.30;;;;;;475111;250;1087;-42
2022/06/08 06:04:47;;;;;;;;;;;21.70;56.20;;;;;;474981;251;1089;-42
2022/06/08 06:06:48;;;;;;;;;;;21.80;56.30;;;;;;474829;251;1242;-42
2022/06/08 06:08:49;;;;;;;;;;;21.80;56.20;;;;;;474904;250;2126;-42
2022/06/08 06:10:51;;;;;;;;;;;21.80;56.20;;;;;;474841;251;1291;-42
2022/06/08 06:12:54;;;;;;;;;;;21.80;56.30;;;;;;474861;250;1243;-42
2022/06/08 06:14:54;;;;;;;;;;;21.80;56.30;;;;;;475004;250;2060;-42
2022/06/08 06:16:56;;;;;;;;;;;21.80;56.30;;;;;;474612;250;1355;-42
2022/06/08 06:18:57;;;;;;;;;;;21.70;56.20;;;;;;474816;250;1222;-41
2022/06/08 06:20:58;;;;;;;;;;;21.70;56.20;;;;;;474751;251;1094;-42
2022/06/08 06:23:00;;;;;;;;;;;21.70;56.40;;;;;;474887;251;1224;-42
2022/06/08 06:25:01;;;;;;;;;;;21.70;56.40;;;;;;474948;250;1209;-42
2022/06/08 06:27:03;;;;;;;;;;;21.70;56.30;;;;;;474866;250;1094;-42
2022/06/08 06:29:04;;;;;;;;;;;21.70;56.30;;;;;;474811;251;2234;-42
2022/06/08 06:31:05;;;;;;;;;;;21.70;56.30;;;;;;474929;250;1207;-42
2022/06/08 06:33:07;;;;;;;;;;;21.70;56.20;;;;;;474763;251;1394;-42
2022/06/08 06:35:08;;;;;;;;;;;21.70;56.40;;;;;;474628;251;1380;-42
2022/06/08 06:37:10;;;;;;;;;;;21.70;56.40;;;;;;474691;250;1193;-42
2022/06/08 06:39:11;;;;;;;;;;;21.70;56.40;;;;;;474672;250;1431;-42
2022/06/08 06:41:12;;;;;;;;;;;21.60;56.40;;;;;;474546;251;1185;-42
2022/06/08 06:43:14;;;;;;;;;;;21.70;56.30;;;;;;474687;250;1204;-42
2022/06/08 06:45:15;;;;;;;;;;;21.70;56.30;;;;;;474539;250;1241;-42
2022/06/08 06:47:16;;;;;;;;;;;21.70;56.30;;;;;;474514;250;1206;-42
2022/06/08 06:49:18;;;;;;;;;;;21.70;56.30;;;;;;474527;251;2196;-42
2022/06/08 06:51:19;;;;;;;;;;;21.70;56.40;;;;;;474507;250;1212;-42
2022/06/08 06:53:20;;;;;;;;;;;21.70;56.30;;;;;;474419;251;1122;-42
2022/06/08 06:55:22;;;;;;;;;;;21.70;56.20;;;;;;474227;250;1201;-42
2022/06/08 06:57:23;;;;;;;;;;;21.70;56.20;;;;;;474099;250;1269;-42
2022/06/08 06:59:24;;;;;;;;;;;21.70;56.20;;;;;;474137;250;1236;-42
2022/06/08 07:01:26;;;;;;;;;;;21.70;56.20;;;;;;474291;251;1172;-41
2022/06/08 07:03:27;;;;;;;;;;;21.70;56.30;;;;;;474467;250;1254;-42
2022/06/08 07:05:28;;;;;;;;;;;21.70;56.30;;;;;;474436;250;1263;-42
2022/06/08 07:07:30;;;;;;;;;;;21.70;56.20;;;;;;474368;251;2204;-42
2022/06/08 07:09:31;;;;;;;;;;;21.70;56.20;;;;;;474471;250;1269;-42
2022/06/08 07:11:39;;;;;;;;;;;21.60;56.20;;;;;;474561;250;1279;-42
2022/06/08 07:13:37;;;;;;;;;;;21.60;56.20;;;;;;474072;251;2571;-41
2022/06/08 07:15:39;;;;;;;;;;;21.70;56.30;;;;;;474268;251;1235;-41
2022/06/08 07:17:40;;;;;;;;;;;21.60;56.20;;;;;;474235;251;1343;-41
2022/06/08 07:19:43;;;;;;;;;;;21.70;56.30;;;;;;474444;250;1494;-40
2022/06/08 07:21:44;;;;;;;;;;;21.70;56.30;;;;;;475038;250;2239;-41
2022/06/08 07:23:45;;;;;;;;;;;21.70;56.30;;;;;;474688;251;940;-38
2022/06/08 07:25:46;;;;;;;;;;;21.70;56.20;;;;;;475028;250;1337;-41
2022/06/08 07:27:48;;;;;;;;;;;21.70;56.20;;;;;;474621;251;2196;-41
2022/06/08 07:29:49;;;;;;;;;;;21.70;56.20;;;;;;474690;251;856;-41
2022/06/08 07:31:50;;;;;;;;;;;21.70;56.20;;;;;;474741;250;1228;-41
2022/06/08 07:33:52;;;;;;;;;;;21.70;56.30;;;;;;474396;251;1147;-41
2022/06/08 07:35:53;;;;;;;;;;;21.70;56.20;;;;;;473995;250;1177;-42
2022/06/08 07:37:54;;;;;;;;;;;21.70;56.10;;;;;;474156;250;1237;-41
2022/06/08 07:39:55;;;;;;;;;;;21.70;56.10;;;;;;474374;250;1104;-41
2022/06/08 07:41:57;;;;;;;;;;;21.70;56.20;;;;;;474157;251;1307;-41
2022/06/08 07:43:58;;;;;;;;;;;21.70;56.20;;;;;;474458;250;1211;-41
2022/06/08 07:45:59;;;;;;;;;;;21.80;56.10;;;;;;474392;250;1266;-41
2022/06/08 07:50:20;;;;;;;;;;;21.70;56.20;;;;;;473905;251;1400;-41
2022/06/08 07:52:21;;;;;;;;;;;21.80;56.00;;;;;;474064;251;1368;-42
2022/06/08 07:54:23;;;;;;;;;;;21.80;56.00;;;;;;474051;251;1237;-41
2022/06/08 07:56:24;;;;;;;;;;;21.80;56.10;;;;;;473907;251;1189;-41
2022/06/08 07:58:25;;;;;;;;;;;21.80;56.00;;;;;;473990;250;1244;-41
2022/06/08 08:00:27;;;;;;;;;;;21.80;56.10;;;;;;474248;251;1182;-41
2022/06/08 08:02:29;;;;;;;;;;;21.80;56.10;;;;;;474220;250;1414;-41
2022/06/08 08:04:30;;;;;;;;;;;21.80;56.00;;;;;;474058;250;1431;-41
2022/06/08 08:06:31;;;;;;;;;;;21.80;56.00;;;;;;474214;250;1219;-42
2022/06/08 08:08:32;;;;;;;;;;;21.80;56.00;;;;;;474438;250;2204;-41
2022/06/08 08:10:33;;;;;;;;;;;21.80;56.00;;;;;;474108;250;1286;-41
2022/06/08 08:12:35;;;;;;;;;;;21.70;56.00;;;;;;473932;251;1297;-41
2022/06/08 08:14:36;;;;;;;;;;;21.70;56.10;;;;;;473936;250;1208;-41
2022/06/08 08:16:38;;;;;;;;;;;21.80;56.10;;;;;;473792;250;1258;-41
2022/06/08 08:18:39;;;;;;;;;;;21.70;56.10;;;;;;474102;251;1410;-41
2022/06/08 08:20:40;;;;;;;;;;;21.70;56.10;;;;;;474210;250;1341;-41
2022/06/08 08:22:42;;;;;;;;;;;21.80;55.90;;;;;;474120;250;1233;-41
2022/06/08 08:24:43;;;;;;;;;;;21.80;55.90;;;;;;473946;250;1347;-42
2022/06/08 08:26:44;;;;;;;;;;;21.70;56.10;;;;;;473964;250;1688;-41
2022/06/08 08:28:46;;;;;;;;;;;21.70;56.10;;;;;;474126;250;2216;-41
2022/06/08 08:30:47;;;;;;;;;;;21.80;56.00;;;;;;474248;251;1169;-41
2022/06/08 08:32:48;;;;;;;;;;;21.80;55.90;;;;;;474617;250;1214;-41
2022/06/08 08:34:50;;;;;;;;;;;21.80;55.80;;;;;;475242;250;1277;-41
2022/06/08 08:36:51;;;;;;;;;;;21.80;56.00;;;;;;474918;250;1138;-41
2022/06/08 08:38:52;;;;;;;;;;;21.70;56.10;;;;;;475362;250;897;-42
2022/06/08 08:40:54;;;;;;;;;;;21.80;56.00;;;;;;474917;251;841;-41
2022/06/08 08:42:55;;;;;;;;;;;21.70;56.00;;;;;;474893;250;1122;-41
2022/06/08 08:44:56;;;;;;;;;;;21.70;56.00;;;;;;474848;251;1095;-41
2022/06/08 08:46:58;;;;;;;;;;;21.70;56.00;;;;;;475199;250;1143;-41
2022/06/08 08:48:59;;;;;;;;;;;21.80;56.00;;;;;;474911;250;2200;-41
2022/06/08 08:51:00;;;;;;;;;;;21.70;56.00;;;;;;475242;250;1151;-41
2022/06/08 08:53:02;;;;;;;;;;;21.70;56.00;;;;;;475241;250;1167;-42
2022/06/08 08:55:03;;;;;;;;;;;21.70;56.00;;;;;;475148;250;1022;-42
2022/06/08 08:57:04;;;;;;;;;;;21.70;56.00;;;;;;474659;251;1176;-42
2022/06/08 08:59:06;;;;;;;;;;;21.80;55.90;;;;;;474917;250;1039;-41
2022/06/08 09:01:07;;;;;;;;;;;21.80;55.90;;;;;;474698;251;1020;-41
2022/06/08 09:03:17;;;;;;;;;;;21.80;55.90;;;;;;475204;250;900;-41
2022/06/08 09:05:18;;;;;;;;;;;21.80;55.90;;;;;;475006;250;990;-41
2022/06/08 09:07:21;;;;;;;;;;;21.80;55.90;;;;;;474812;251;1155;-41
2022/06/08 09:09:21;;;;;;;;;;;21.70;56.00;;;;;;474661;251;2193;-41
2022/06/08 09:11:23;;;;;;;;;;;21.70;56.00;;;;;;474772;250;1421;-42
2022/06/08 09:13:24;;;;;;;;;;;21.70;56.00;;;;;;474850;250;1164;-41
2022/06/08 09:15:25;;;;;;;;;;;21.80;56.00;;;;;;475150;250;1203;-41
2022/06/08 09:17:27;;;;;;;;;;;21.80;55.90;;;;;;475066;250;1140;-41
2022/06/08 09:19:29;;;;;;;;;;;21.80;55.90;;;;;;475078;250;1131;-41
2022/06/08 09:21:30;;;;;;;;;;;21.80;55.90;;;;;;475044;250;1207;-41
2022/06/08 09:23:31;;;;;;;;;;;21.80;55.90;;;;;;474524;251;1142;-41
2022/06/08 09:25:33;;;;;;;;;;;21.80;56.00;;;;;;474838;250;1254;-41
2022/06/08 09:27:34;;;;;;;;;;;21.70;55.90;;;;;;474454;250;1155;-41
2022/06/08 09:29:36;;;;;;;;;;;21.70;56.00;;;;;;474803;250;2196;-41
2022/06/08 09:31:38;;;;;;;;;;;21.80;55.90;;;;;;474675;250;1259;-41
2022/06/08 09:33:38;;;;;;;;;;;21.80;56.00;;;;;;474330;251;2088;-41
2022/06/08 09:35:40;;;;;;;;;;;21.80;56.00;;;;;;474398;251;1194;-41
2022/06/08 09:37:41;;;;;;;;;;;21.80;55.90;;;;;;474847;250;2119;-42
2022/06/08 09:39:42;;;;;;;;;;;21.80;55.90;;;;;;474206;251;1387;-42
2022/06/08 09:41:43;;;;;;;;;;;21.80;56.00;;;;;;474189;251;1418;-42
2022/06/08 09:43:45;;;;;;;;;;;21.70;55.90;;;;;;474522;250;1094;-41
2022/06/08 09:45:46;;;;;;;;;;;21.80;55.90;;;;;;474534;250;1404;-41
2022/06/08 09:52:26;;;;;;;;;;;21.80;55.90;;;;;;474281;250;1059;-42
2022/06/08 09:54:27;;;;;;;;;;;21.80;56.00;;;;;;474819;251;1010;-41
2022/06/08 09:56:29;;;;;;;;;;;21.80;56.00;;;;;;474549;251;1180;-41
2022/06/08 09:58:30;;;;;;;;;;;21.80;55.90;;;;;;474303;250;1233;-41
2022/06/08 10:00:31;;;;;;;;;;;21.80;56.00;;;;;;474364;250;1142;-41
2022/06/08 10:02:33;;;;;;;;;;;21.70;55.90;;;;;;474135;251;1216;-41
2022/06/08 10:04:34;;;;;;;;;;;21.80;55.90;;;;;;474228;251;2042;-41
2022/06/08 10:06:35;;;;;;;;;;;21.70;56.00;;;;;;474534;251;1219;-41
2022/06/08 10:08:38;;;;;;;;;;;21.80;56.00;;;;;;475154;250;2192;-41
2022/06/08 10:10:38;;;;;;;;;;;21.70;55.90;;;;;;474692;251;2276;-41
2022/06/08 10:12:40;;;;;;;;;;;21.70;56.00;;;;;;475166;250;1153;-41
2022/06/08 10:14:42;;;;;;;;;;;21.70;56.00;;;;;;474868;251;2305;-41
2022/06/08 10:16:42;;;;;;;;;;;21.70;56.00;;;;;;475324;250;2121;-41
2022/06/08 10:18:43;;;;;;;;;;;21.80;55.80;;;;;;475268;250;1112;-41
2022/06/08 10:20:45;;;;;;;;;;;21.80;55.90;;;;;;475134;250;1075;-41
2022/06/08 10:22:46;;;;;;;;;;;21.70;55.90;;;;;;475133;250;1286;-41
2022/06/08 10:24:49;;;;;;;;;;;21.70;55.90;;;;;;474966;251;1100;-41
2022/06/08 10:26:49;;;;;;;;;;;21.70;56.00;;;;;;474812;251;2011;-42
2022/06/08 10:28:52;;;;;;;;;;;21.80;56.00;;;;;;474900;251;2188;-41
2022/06/08 10:30:52;;;;;;;;;;;21.70;56.00;;;;;;474888;251;2116;-42
2022/06/08 10:32:53;;;;;;;;;;;21.70;56.00;;;;;;475238;250;1220;-42
2022/06/08 10:34:55;;;;;;;;;;;21.70;55.90;;;;;;475071;250;1035;-41
2022/06/08 10:36:56;;;;;;;;;;;21.80;56.00;;;;;;474559;251;1077;-41
2022/06/08 10:38:57;;;;;;;;;;;21.70;56.10;;;;;;474792;251;1066;-42
2022/06/08 10:40:59;;;;;;;;;;;21.70;56.10;;;;;;474974;251;1083;-42
2022/06/08 10:43:00;;;;;;;;;;;21.70;56.10;;;;;;475347;250;1136;-41
2022/06/08 10:45:01;;;;;;;;;;;21.70;56.00;;;;;;474906;250;1167;-41
2022/06/08 10:47:02;;;;;;;;;;;21.70;56.00;;;;;;475243;250;1096;-41
2022/06/08 10:49:04;;;;;;;;;;;21.80;56.00;;;;;;475096;250;2191;-41
2022/06/08 10:51:05;;;;;;;;;;;21.80;55.80;;;;;;474710;251;911;-41
2022/06/08 10:55:26;;;;;;;;;;;21.80;55.90;;;;;;474457;250;1106;-41
2022/06/08 10:57:29;;;;;;;;;;;21.80;56.00;;;;;;474379;250;1124;-42
2022/06/08 10:59:29;;;;;;;;;;;21.70;55.90;;;;;;473114;251;2062;-41
2022/06/08 11:01:30;;;;;;;;;;;21.70;55.90;;;;;;483525;246;1087;-41
2022/06/08 11:03:32;;;;;;;;;;;21.70;55.90;;;;;;483590;246;1079;-41
2022/06/08 11:05:33;;;;;;;;;;;21.70;55.90;;;;;;483323;246;908;-41
2022/06/08 11:07:35;;;;;;;;;;;21.80;55.90;;;;;;483885;246;1030;-41
2022/06/08 11:09:36;;;;;;;;;;;21.80;55.90;;;;;;483553;246;2180;-41
2022/06/08 11:11:37;;;;;;;;;;;21.80;55.90;;;;;;483277;246;1227;-41
2022/06/08 11:13:39;;;;;;;;;;;21.80;55.90;;;;;;483291;246;1205;-41
2022/06/08 11:15:40;;;;;;;;;;;21.70;55.90;;;;;;483186;246;1435;-41
2022/06/08 11:17:44;;;;;;;;;;;21.70;56.00;;;;;;482936;246;1206;-41
2022/06/08 11:19:43;;;;;;;;;;;21.70;55.90;;;;;;482787;246;2501;-41
2022/06/08 11:21:44;;;;;;;;;;;21.70;55.80;;;;;;483087;246;1172;-41
2022/06/08 11:23:46;;;;;;;;;;;21.80;55.80;;;;;;483215;246;1300;-42
2022/06/08 11:25:47;;;;;;;;;;;21.80;55.80;;;;;;483130;246;1243;-41
2022/06/08 11:27:48;;;;;;;;;;;21.80;55.80;;;;;;482996;246;1313;-41
2022/06/08 11:29:50;;;;;;;;;;;21.80;55.90;;;;;;483093;246;2203;-41
2022/06/08 11:31:51;;;;;;;;;;;21.70;55.80;;;;;;483141;246;1180;-41
2022/06/08 11:33:53;;;;;;;;;;;21.70;55.80;;;;;;483205;246;1274;-41
2022/06/08 11:35:54;;;;;;;;;;;21.70;55.90;;;;;;483266;246;1287;-41
2022/06/08 11:37:57;;;;;;;;;;;21.70;55.90;;;;;;484052;246;1347;-41
2022/06/08 11:39:57;;;;;;;;;;;21.70;56.00;;;;;;483540;246;2130;-41
2022/06/08 11:41:58;;;;;;;;;;;21.70;55.90;;;;;;483214;246;1143;-41
2022/06/08 11:43:59;;;;;;;;;;;21.70;56.00;;;;;;483279;246;1263;-41
2022/06/08 11:46:01;;;;;;;;;;;21.70;56.00;;;;;;483233;246;1189;-41
2022/06/08 11:48:04;;;;;;;;;;;21.70;55.90;;;;;;483116;246;1203;-42
2022/06/08 11:50:03;;;;;;;;;;;21.80;55.90;;;;;;482992;246;2185;-42
2022/06/08 11:52:05;;;;;;;;;;;21.70;55.90;;;;;;483024;246;1400;-41
2022/06/08 11:54:06;;;;;;;;;;;21.70;55.90;;;;;;482929;246;1155;-41
2022/06/08 11:56:07;;;;;;;;;;;21.70;56.00;;;;;;482878;246;1128;-41
2022/06/08 11:58:09;;;;;;;;;;;21.70;56.00;;;;;;482886;246;1199;-41
2022/06/08 12:00:10;;;;;;;;;;;21.70;56.00;;;;;;482978;246;1109;-42
2022/06/08 12:02:12;;;;;;;;;;;21.70;55.90;;;;;;483080;246;1298;-41
2022/06/08 12:04:13;;;;;;;;;;;21.70;56.00;;;;;;483349;246;1047;-41
2022/06/08 12:06:14;;;;;;;;;;;21.70;56.00;;;;;;483663;246;1234;-41
2022/06/08 12:08:15;;;;;;;;;;;21.70;55.90;;;;;;483297;246;1218;-41
2022/06/08 12:10:17;;;;;;;;;;;21.70;56.00;;;;;;483583;246;2220;-41
2022/06/08 12:12:18;;;;;;;;;;;21.70;56.00;;;;;;482935;246;1349;-42